Latest Weather Observations for Montague Island

IDN60801

Issued at 10:12 am EST Tuesday 26 May 2020 (issued every 10 minutes, with the page automatically refreshed every 10 minutes)

About weather observations | Map of weather stations | Latest weather observations for NSW | Other Formats
Station Details ID: 069017 Name: MONTAGUE ISLAND LIGHTHOUSE Lat: -36.25 Lon: 150.23 Height: 52.0 m
Data from the previous 72 hours. | See also: Recent months at Montague Island
Date/Time
EST
Temp
°C
App
Temp
°C
Dew
Point
°C
Rel
Hum
%
Delta-T
°C
Wind Press
QNH
hPa
Press
MSL
hPa
Rain since
9am
mm
Dir  Spd
km/h
Gust
km/h
Spd
kts
Gust
kts
26/10:00am 13.7 8.5 13.4 98 0.2 SW 33 41 18 22 1025.8 1025.8 0.8
26/09:30am 13.4 7.8 13.2 99 0.1 SW 35 44 19 24 1025.6 1025.6 0.8
26/09:00am 12.9 7.4 12.6 98 0.2 SW 33 48 18 26 1025.6 1025.6 5.2
26/08:30am 12.9 6.3 12.6 98 0.2 SW 39 50 21 27 1025.4 1025.4 3.2
26/08:00am 12.7 5.2 12.2 97 0.3 SW 43 52 23 28 1025.0 1025.0 2.8
26/07:30am 12.7 5.6 12.2 97 0.3 SW 41 52 22 28 1024.8 1024.8 1.4
26/07:00am 12.7 5.5 11.9 95 0.4 SW 41 50 22 27 1024.5 1024.5 0.4
26/06:30am 13.2 5.5 12.1 93 0.6 SSW 44 54 24 29 1024.1 1024.1 0.0
26/06:00am 13.2 6.3 11.6 90 0.8 SSW 39 52 21 28 1023.8 1023.8 0.0
26/05:30am 13.7 5.7 11.2 85 1.3 SW 44 57 24 31 1023.6 1023.5 0.0
26/05:00am 14.2 6.4 11.0 81 1.7 SW 43 59 23 32 1023.4 1023.3 0.0
26/04:30am 14.3 6.2 10.9 80 1.8 SW 44 57 24 31 1023.2 1023.1 0.0
26/04:00am 14.3 6.4 10.9 80 1.8 SW 43 56 23 30 1023.2 1023.1 0.0
26/03:30am 14.2 6.1 10.6 79 1.9 SW 44 56 24 30 1023.2 1023.1 0.0
26/03:00am 14.1 6.2 10.9 81 1.7 SW 43 57 23 31 1023.4 1023.3 0.0
26/02:30am 13.7 6.0 11.6 87 1.1 SW 43 56 23 30 1023.5 1023.4 0.0
26/02:00am 14.0 5.8 10.4 79 1.9 SW 44 59 24 32 1023.6 1023.5 0.0
26/01:30am 14.4 6.4 10.6 78 2.0 SW 43 54 23 29 1023.6 1023.5 0.0
26/01:00am 14.3 6.2 10.9 80 1.8 SSW 44 56 24 30 1023.8 1023.8 0.0
26/12:30am 14.3 6.1 10.5 78 2.0 SSW 44 61 24 33 1023.7 1023.7 0.0
26/12:23am 14.4 6.5 10.8 79 1.9 SW 43 61 23 33 1023.7 1023.7 0.0
26/12:00am 14.4 6.4 10.4 77 2.1 SW 43 54 23 29 1023.8 1023.8 0.0
 
Date/Time
EST
Temp
°C
App
Temp
°C
Dew
Point
°C
Rel
Hum
%
Delta-T
°C
Wind Press
QNH
hPa
Press
MSL
hPa
Rain since
9am
mm
Dir  Spd
km/h
Gust
km/h
Spd
kts
Gust
kts
25/11:30pm 14.2 6.1 10.2 77 2.1 SW 43 54 23 29 1023.8 1023.8 0.0
25/11:00pm 14.1 5.4 9.9 76 2.2 SW 46 59 25 32 1023.7 1023.7 0.0
25/10:30pm 14.4 6.3 10.0 75 2.3 SW 43 56 23 30 1023.8 1023.8 0.0
25/10:00pm 14.3 5.5 9.7 74 2.4 SW 46 54 25 29 1023.7 1023.7 0.0
25/09:30pm 14.3 5.6 9.9 75 2.3 SW 46 56 25 30 1023.5 1023.4 0.0
25/09:00pm 13.7 5.8 10.7 82 1.6 SW 43 57 23 31 1023.6 1023.5 0.0
25/08:56pm 14.0 5.6 11.0 82 1.6 SW 46 65 25 35 1023.6 1023.5 0.0
25/08:30pm 14.2 5.7 10.8 80 1.8 SW 46 56 25 30 1023.4 1023.3 0.0
25/08:00pm 13.9 6.0 10.7 81 1.7 SW 43 52 23 28 1023.3 1023.2 0.0
25/07:30pm 14.5 7.1 11.1 80 1.8 SW 41 56 22 30 1022.9 1022.8 0.0
25/07:00pm 14.4 6.4 10.6 78 2.0 SW 43 56 23 30 1022.5 1022.4 0.0
25/06:30pm 14.6 6.6 11.0 79 1.9 SW 44 61 24 33 1022.2 1022.1 0.0
25/06:00pm 14.5 5.8 11.3 81 1.7 SSW 48 63 26 34 1021.8 1021.7 0.0
25/05:46pm 14.5 7.3 11.8 84 1.5 SW 41 59 22 32 1021.7 1021.6 0.0
25/05:30pm 14.0 6.1 11.5 85 1.3 SW 44 57 24 31 1021.6 1021.5 0.0
25/05:00pm 13.7 4.8 11.9 89 1.0 SSW 50 69 27 37 1021.5 1021.4 0.0
25/04:46pm 14.2 3.8 11.2 82 1.6 SSW 57 82 31 44 1021.0 1020.9 0.0
25/04:30pm 14.5 5.1 11.5 82 1.6 SSW 52 65 28 35 1021.0 1020.9 0.0
25/04:00pm 14.9 5.8 11.3 79 1.9 SSW 50 65 27 35 1021.0 1020.9 0.0
25/03:30pm 14.6 4.6 10.8 78 2.0 SSW 54 69 29 37 1020.8 1020.7 0.0
25/03:00pm 14.7 5.0 11.7 82 1.6 SSW 54 67 29 36 1020.7 1020.6 0.0
25/02:49pm 14.7 5.8 11.8 83 1.6 SSW 50 70 27 38 1020.6 1020.5 0.0
25/02:30pm 14.3 4.8 12.3 88 1.1 SSW 54 67 29 36 1020.6 1020.5 0.0
25/02:00pm 15.1 4.7 11.5 79 1.9 SSW 57 69 31 37 1020.3 1020.2 0.0
25/01:30pm 14.5 4.3 11.5 82 1.6 SSW 56 76 30 41 1020.1 1020.0 0.0
25/01:16pm 14.4 5.8 11.6 83 1.5 SW 48 67 26 36 1020.2 1020.1 0.0
25/01:00pm 14.1 5.1 11.6 85 1.3 SSW 50 65 27 35 1020.1 1020.0 0.0
25/12:30pm 13.9 5.0 11.8 87 1.1 SSW 50 69 27 37 1020.3 1020.2 0.0
25/12:06pm 14.3 4.7 12.2 87 1.1 SW 54 74 29 40 1020.4 1020.3 0.0
25/12:00pm 13.8 3.6 11.3 85 1.3 SW 56 72 30 39 1020.3 1020.2 0.0
25/11:30am 13.9 4.0 11.1 83 1.5 SW 54 72 29 39 1020.6 1020.5 0.0
25/11:05am 13.8 4.3 11.0 83 1.5 SSW 52 74 28 40 1020.6 1020.5 0.0
25/11:00am 13.7 4.2 11.2 85 1.3 SW 52 70 28 38 1020.8 1020.7 0.0
25/10:30am 13.0 2.5 10.9 87 1.1 SSW 57 76 31 41 1020.6 1020.5 0.0
25/10:01am 13.5 3.4 10.3 81 1.7 SW 54 72 29 39 1020.4 1020.3 0.0
25/10:00am 13.6 3.9 10.6 82 1.6 SW 52 70 28 38 1020.5 1020.4 0.0
25/09:30am 13.7 3.5 9.9 78 2.0 SSW 54 76 29 41 1020.3 1020.2 0.0
25/09:18am 13.6 3.3 9.8 78 2.0 SW 54 72 29 39 1020.2 1020.1 0.0
25/09:00am 13.9 3.3 9.9 77 2.1 SW 56 70 30 38 1020.0 1019.9 0.0
25/08:30am 13.7 3.2 10.3 80 1.8 SW 56 74 30 40 1019.9 1019.8 0.0
25/08:21am 13.2 2.9 9.6 79 1.8 SW 54 74 29 40 1019.7 1019.6 0.0
25/08:00am 13.3 2.7 9.9 80 1.7 SW 56 69 30 37 1019.6 1019.5 0.0
25/07:30am 13.5 2.9 10.1 80 1.8 SW 56 67 30 36 1019.4 1019.3 0.0
25/07:00am 13.5 2.8 9.7 78 1.9 SW 56 67 30 36 1019.0 1018.9 0.0
25/06:30am 13.7 3.5 9.9 78 2.0 SW 54 69 29 37 1018.6 1018.5 0.0
25/06:14am 13.8 4.4 10.0 78 2.0 SW 50 70 27 38 1018.3 1018.2 0.0
25/06:00am 13.6 3.0 9.8 78 2.0 SW 56 72 30 39 1018.0 1017.9 0.0
25/05:30am 13.5 2.8 9.6 77 2.0 SW 56 70 30 38 1017.7 1017.6 0.0
25/05:00am 13.7 3.1 9.9 78 2.0 SW 56 72 30 39 1017.6 1017.5 0.0
25/04:51am 13.7 3.4 9.7 77 2.1 SW 54 72 29 39 1017.5 1017.4 0.0
25/04:30am 13.5 3.1 9.4 76 2.1 SW 54 69 29 37 1017.4 1017.3 0.0
25/04:00am 13.4 3.1 9.8 79 1.8 SW 54 69 29 37 1017.3 1017.2 0.0
25/03:30am 13.2 2.6 10.0 81 1.7 SW 56 67 30 36 1017.1 1017.0 0.0
25/03:00am 12.9 2.3 9.9 82 1.5 SW 56 69 30 37 1017.2 1017.1 0.0
25/02:30am 12.4 1.8 10.0 85 1.2 SW 56 74 30 40 1017.4 1017.3 0.0
25/02:29am 12.5 2.0 10.2 86 1.2 SW 56 74 30 40 1017.5 1017.4 0.0
25/02:00am 13.2 3.0 10.2 82 1.6 SW 54 69 29 37 1017.4 1017.3 0.0
25/01:30am 13.2 3.1 10.4 83 1.5 SW 54 72 29 39 1017.6 1017.5 0.0
25/01:00am 12.8 2.6 10.2 84 1.3 SW 54 76 29 41 1017.2 1017.1 0.0
25/12:30am 12.6 2.9 10.5 87 1.1 SW 52 61 28 33 1017.4 1017.3 0.0
25/12:00am 12.5 2.3 10.2 86 1.2 SW 54 65 29 35 1017.2 1017.1 0.0
 
Date/Time
EST
Temp
°C
App
Temp
°C
Dew
Point
°C
Rel
Hum
%
Delta-T
°C
Wind Press
QNH
hPa
Press
MSL
hPa
Rain since
9am
mm
Dir  Spd
km/h
Gust
km/h
Spd
kts
Gust
kts
24/11:30pm 13.4 3.6 10.2 81 1.7 SW 52 72 28 39 1017.2 1017.1 0.0
24/11:25pm 13.2 3.3 9.8 80 1.7 SW 52 72 28 39 1017.1 1017.0 0.0
24/11:00pm 13.5 4.3 9.6 77 2.0 SW 48 65 26 35 1017.5 1017.4 0.0
24/10:30pm 13.3 2.6 9.5 78 1.9 SW 56 70 30 38 1017.3 1017.2 0.0
24/10:00pm 13.5 3.6 9.6 77 2.0 SW 52 67 28 36 1017.0 1016.9 0.0
24/09:39pm 13.4 3.0 9.3 76 2.1 SW 54 76 29 41 1017.0 1016.9 0.0
24/09:30pm 13.6 3.7 9.6 77 2.1 SW 52 69 28 37 1017.1 1017.0 0.0
24/09:00pm 13.4 3.0 9.3 76 2.1 SW 54 67 29 36 1016.8 1016.7 0.0
24/08:30pm 13.7 4.6 9.9 78 2.0 SW 48 61 26 33 1016.9 1016.8 0.0
24/08:00pm 13.5 3.6 9.9 79 1.9 SW 52 65 28 35 1016.6 1016.5 0.0
24/07:30pm 13.8 4.4 10.0 78 2.0 SW 50 61 27 33 1016.6 1016.5 0.0
24/07:00pm 13.8 3.9 9.8 77 2.1 SW 52 69 28 37 1016.4 1016.3 0.0
24/06:31pm 14.1 4.2 9.9 76 2.2 SW 52 70 28 38 1016.1 1016.0 0.0
24/06:30pm 14.0 3.7 9.8 76 2.2 SW 54 70 29 38 1016.0 1015.9 0.0
24/06:06pm 13.9 3.1 9.3 74 2.4 SW 56 74 30 40 1015.7 1015.6 0.0
24/06:00pm 14.1 4.6 9.7 75 2.3 SW 50 67 27 36 1015.9 1015.8 0.0
24/05:30pm 13.9 5.0 9.3 74 2.4 SW 46 67 25 36 1015.7 1015.6 0.0
24/05:26pm 13.9 4.7 9.5 75 2.3 SSW 48 67 26 36 1015.8 1015.7 0.0
24/05:00pm 14.5 5.5 8.7 68 2.9 SW 46 57 25 31 1015.2 1015.1 0.0
24/04:30pm 14.5 4.5 9.3 71 2.7 SW 52 65 28 35 1014.8 1014.7 0.0
24/04:02pm 14.6 5.6 9.0 69 2.9 SW 46 65 25 35 1014.7 1014.6 0.0
24/04:00pm 14.5 5.1 8.9 69 2.8 SW 48 65 26 35 1014.7 1014.6 0.0
24/03:59pm 14.6 5.6 9.0 69 2.9 SW 46 65 25 35 1014.7 1014.6 0.0
24/03:30pm 15.1 4.9 8.6 65 3.3 SW 52 61 28 33 1014.4 1014.3 0.0
24/03:00pm 16.0 6.6 8.7 62 3.7 SW 48 67 26 36 1014.0 1013.9 0.0
24/02:36pm 16.0 6.5 8.2 60 4.0 SSW 48 69 26 37 1014.1 1014.0 0.0
24/02:30pm 16.1 5.8 8.1 59 4.0 SSW 52 65 28 35 1013.9 1013.8 0.0
24/02:00pm 15.8 4.3 8.5 62 3.7 SSW 59 76 32 41 1013.8 1013.7 0.0
24/01:34pm 15.9 5.1 9.1 64 3.5 SSW 56 78 30 42 1013.5 1013.4 0.0
24/01:30pm 15.9 5.3 8.6 62 3.7 SSW 54 72 29 39 1013.6 1013.5 0.0
24/01:01pm 15.8 5.2 8.5 62 3.7 SW 54 72 29 39 1013.7 1013.6 0.0
24/01:00pm 15.9 5.0 8.9 63 3.6 SW 56 72 30 39 1013.7 1013.6 0.0
24/12:55pm 16.1 5.4 10.2 68 3.1 SSW 57 76 31 41 1013.8 1013.7 0.0
24/12:30pm 15.7 3.1 8.9 64 3.5 SSW 65 80 35 43 1013.6 1013.5 0.0
24/12:00pm 16.1 3.4 8.3 60 4.0 SSW 65 85 35 46 1013.7 1013.6 0.0
24/11:33am 16.1 4.3 9.1 63 3.6 SSW 61 87 33 47 1014.0 1013.9 0.0
24/11:30am 16.2 4.3 8.7 61 3.8 SSW 61 80 33 43 1014.0 1013.9 0.0
24/11:00am 16.0 5.1 9.7 66 3.3 SSW 57 74 31 40 1014.1 1014.0 0.0
24/10:44am 15.9 4.7 9.8 67 3.2 SSW 59 80 32 43 1014.1 1014.0 0.0
24/10:30am 15.5 4.1 9.0 65 3.3 SSW 59 76 32 41 1014.1 1014.0 0.0
24/10:00am 15.5 5.9 9.4 67 3.2 SSW 50 72 27 39 1014.1 1014.0 0.0
24/09:59am 15.6 6.1 9.7 68 3.1 SSW 50 72 27 39 1014.1 1014.0 0.0
24/09:30am 15.1 4.3 9.2 68 3.0 SW 56 70 30 38 1013.8 1013.7 0.0
24/09:01am 14.5 3.5 9.3 71 2.7 SW 57 76 31 41 1013.3 1013.2 0.0
24/09:00am 14.4 3.0 9.2 71 2.7 SW 59 76 32 41 1013.2 1013.1 0.2
24/08:30am 14.4 3.4 9.0 70 2.8 SW 57 76 31 41 1012.9 1012.9 0.2
24/08:25am 14.6 4.0 9.8 73 2.5 SW 56 76 30 41 1013.1 1013.0 0.2
24/08:00am 14.3 4.1 10.1 76 2.2 SW 54 69 29 37 1013.1 1013.0 0.2
24/07:30am 13.8 5.5 11.3 85 1.3 SW 46 65 25 35 1012.8 1012.8 0.2
24/07:01am 13.2 3.3 12.3 94 0.5 SW 56 76 30 41 1012.1 1012.1 0.2
24/07:00am 13.2 3.3 12.3 94 0.5 SW 56 70 30 38 1012.1 1012.1 0.2
24/06:46am 13.4 4.2 12.3 93 0.6 SW 52 70 28 38 1012.1 1012.1 0.0
24/06:30am 13.3 2.7 11.9 91 0.8 SW 59 76 32 41 1011.7 1011.7 0.0
24/06:00am 13.1 3.8 11.7 91 0.7 SW 52 63 28 34 1011.3 1011.3 0.0
24/05:30am 13.2 4.1 11.3 88 1.0 SW 50 63 27 34 1011.1 1011.1 0.0
24/05:03am 14.4 3.9 10.4 77 2.1 SW 56 74 30 40 1010.7 1010.7 0.0
24/05:00am 14.4 3.7 10.4 77 2.1 SW 57 74 31 40 1010.5 1010.5 0.0
24/04:59am 14.4 3.9 10.4 77 2.1 SW 56 74 30 40 1010.5 1010.5 0.0
24/04:30am 14.1 3.5 9.9 76 2.2 SW 56 69 30 37 1010.3 1010.3 0.0
24/04:00am 14.1 3.5 9.9 76 2.2 SW 56 67 30 36 1010.2 1010.2 0.0
24/03:30am 14.2 3.4 9.8 75 2.3 SW 57 70 31 38 1010.2 1010.2 0.0
24/03:05am 14.2 3.0 9.8 75 2.3 SW 59 78 32 42 1009.8 1009.8 0.0
24/03:00am 14.3 2.4 9.9 75 2.3 SW 63 78 34 42 1009.9 1009.9 0.0
24/02:30am 14.3 3.1 9.7 74 2.4 SW 59 72 32 39 1010.1 1010.1 0.0
24/02:00am 14.2 2.1 9.2 72 2.6 SW 63 76 34 41 1010.1 1010.1 0.0
24/01:34am 14.3 3.3 9.3 72 2.6 SW 57 80 31 43 1009.9 1009.9 0.0
24/01:30am 14.5 3.6 9.7 73 2.5 SW 57 72 31 39 1009.9 1009.9 0.0
24/01:00am 14.3 3.5 9.1 71 2.7 SW 56 72 30 39 1009.9 1009.9 0.0
24/12:34am 14.3 3.8 8.9 70 2.7 SW 54 72 29 39 1009.9 1009.9 0.0
24/12:30am 14.4 3.9 8.8 69 2.8 SW 54 70 29 38 1010.0 1010.0 0.0
24/12:00am 14.4 3.5 9.0 70 2.8 SW 56 72 30 39 1009.7 1009.7 0.0
 
Date/Time
EST
Temp
°C
App
Temp
°C
Dew
Point
°C
Rel
Hum
%
Delta-T
°C
Wind Press
QNH
hPa
Press
MSL
hPa
Rain since
9am
mm
Dir  Spd
km/h
Gust
km/h
Spd
kts
Gust
kts
23/11:30pm 14.3 3.2 8.7 69 2.8 SW 57 72 31 39 1009.4 1009.4 0.0
23/11:00pm 14.3 3.4 8.7 69 2.8 SW 56 67 30 36 1009.4 1009.4 0.0
23/10:30pm 14.3 3.7 8.5 68 2.9 SW 54 63 29 34 1009.4 1009.4 0.0
23/10:00pm 14.3 3.7 8.3 67 3.0 SW 54 65 29 35 1009.2 1009.2 0.0
23/09:30pm 14.5 4.3 8.7 68 2.9 SW 52 63 28 34 1009.2 1009.2 0.0
23/09:00pm 14.5 4.2 8.2 66 3.2 SW 52 63 28 34 1009.1 1009.1 0.0
23/08:30pm 14.8 4.8 9.2 69 2.9 SW 52 69 28 37 1008.8 1008.8 0.0
23/08:00pm 14.7 4.3 9.1 69 2.9 SW 54 65 29 35 1008.7 1008.7 0.0
23/07:30pm 14.8 5.0 8.7 67 3.1 SW 50 65 27 35 1008.5 1008.5 0.0
23/07:18pm 14.8 5.4 8.7 67 3.1 SW 48 69 26 37 1008.2 1008.2 0.0
23/07:00pm 14.9 5.5 8.8 67 3.1 SW 48 65 26 35 1008.2 1008.2 0.0
23/06:30pm 14.7 5.6 8.4 66 3.2 SW 46 57 25 31 1008.1 1008.1 0.0
23/06:00pm 14.7 4.8 8.4 66 3.2 SW 50 63 27 34 1007.7 1007.6 0.0
23/05:30pm 14.8 5.4 8.7 67 3.1 SW 48 59 26 32 1007.4 1007.3 0.0
23/05:00pm 15.0 5.3 8.9 67 3.1 SW 50 63 27 34 1007.2 1007.1 0.0
23/04:30pm 15.2 5.4 8.7 65 3.3 SW 50 65 27 35 1006.9 1006.8 0.0
23/04:02pm 15.4 6.8 8.9 65 3.3 SW 44 63 24 34 1006.8 1006.7 0.0
23/04:00pm 15.4 6.5 9.1 66 3.2 SW 46 61 25 33 1006.8 1006.7 0.0
23/03:30pm 15.8 5.1 9.5 66 3.3 SW 56 67 30 36 1006.5 1006.4 0.0
23/03:00pm 16.0 5.3 9.4 65 3.4 SW 56 69 30 37 1006.1 1006.0 0.0
23/02:30pm 15.9 4.9 8.6 62 3.7 SW 56 74 30 40 1005.8 1005.7 0.0
23/02:21pm 16.1 5.2 8.8 62 3.7 SW 56 74 30 40 1005.4 1005.3 0.0
23/02:00pm 15.9 4.9 8.6 62 3.7 SW 56 67 30 36 1005.9 1005.8 0.0
23/01:49pm 16.0 5.1 8.7 62 3.7 SW 56 76 30 41 1005.8 1005.7 0.0
23/01:30pm 16.5 5.6 9.0 61 3.9 SW 56 72 30 39 1005.8 1005.7 0.0
23/01:00pm 15.9 4.8 8.6 62 3.7 SW 57 69 31 37 1006.1 1006.0 0.0
23/12:30pm 16.4 5.0 9.1 62 3.8 SW 59 76 32 41 1006.2 1006.1 0.0
23/12:00pm 15.6 3.6 8.4 62 3.7 SW 61 80 33 43 1006.6 1006.5 0.0
23/11:30am 15.7 3.8 8.7 63 3.6 SW 61 76 33 41 1007.0 1006.9 0.0
23/11:00am 15.7 3.1 8.9 64 3.5 SW 65 83 35 45 1007.1 1007.0 0.0
23/10:50am 15.6 4.1 8.8 64 3.5 SW 59 78 32 42 1007.2 1007.1 0.0
23/10:30am 15.3 2.9 8.1 62 3.6 SW 63 76 34 41 1007.2 1007.1 0.0

Other formats

Comma delimited format used in spreadsheet applications
http://www.bom.gov.au/fwo/IDN60801/IDN60801.94939.axf

JavaScript Object Notation format (JSON) in row-major order
http://www.bom.gov.au/fwo/IDN60801/IDN60801.94939.json

Data quality

Most of these data are generated automatically and are frequently updated. Quality checks on data are not normally performed. It is possible for incorrect values to appear. Refer to information at About Latest Weather Observations and please check the disclaimer before using these data.